sensor_id;sensor_type;location;lat;lon;timestamp;P1;durP1;ratioP1;P2;durP2;ratioP2
3843;SDS011;1937;51.444;6.484;2023-06-22T00:02:26;19.13;;;11.23;;
3843;SDS011;1937;51.444;6.484;2023-06-22T00:04:52;18.53;;;10.10;;
3843;SDS011;1937;51.444;6.484;2023-06-22T00:07:19;16.47;;;9.90;;
3843;SDS011;1937;51.444;6.484;2023-06-22T00:09:46;17.93;;;10.40;;
3843;SDS011;1937;51.444;6.484;2023-06-22T00:12:12;16.40;;;11.03;;
3843;SDS011;1937;51.444;6.484;2023-06-22T00:14:39;16.60;;;9.80;;
3843;SDS011;1937;51.444;6.484;2023-06-22T00:17:07;11.80;;;10.00;;
3843;SDS011;1937;51.444;6.484;2023-06-22T00:19:34;19.77;;;10.43;;
3843;SDS011;1937;51.444;6.484;2023-06-22T00:22:01;20.00;;;11.23;;
3843;SDS011;1937;51.444;6.484;2023-06-22T00:24:28;19.40;;;11.20;;
3843;SDS011;1937;51.444;6.484;2023-06-22T00:26:55;19.93;;;11.00;;
3843;SDS011;1937;51.444;6.484;2023-06-22T00:29:22;22.30;;;11.60;;
3843;SDS011;1937;51.444;6.484;2023-06-22T00:31:48;18.33;;;10.93;;
3843;SDS011;1937;51.444;6.484;2023-06-22T00:34:16;15.07;;;11.10;;
3843;SDS011;1937;51.444;6.484;2023-06-22T00:36:43;14.60;;;10.00;;
3843;SDS011;1937;51.444;6.484;2023-06-22T00:39:10;18.03;;;10.90;;
3843;SDS011;1937;51.444;6.484;2023-06-22T00:41:37;17.27;;;10.40;;
3843;SDS011;1937;51.444;6.484;2023-06-22T00:44:03;21.70;;;11.13;;
3843;SDS011;1937;51.444;6.484;2023-06-22T00:46:31;13.23;;;9.07;;
3843;SDS011;1937;51.444;6.484;2023-06-22T00:48:58;16.77;;;10.47;;
3843;SDS011;1937;51.444;6.484;2023-06-22T00:51:27;12.60;;;10.23;;
3843;SDS011;1937;51.444;6.484;2023-06-22T00:53:54;19.13;;;11.10;;
3843;SDS011;1937;51.444;6.484;2023-06-22T00:56:22;25.00;;;10.63;;
3843;SDS011;1937;51.444;6.484;2023-06-22T00:58:50;16.63;;;10.13;;
3843;SDS011;1937;51.444;6.484;2023-06-22T01:01:19;15.00;;;9.77;;
3843;SDS011;1937;51.444;6.484;2023-06-22T01:03:48;18.60;;;9.73;;
3843;SDS011;1937;51.444;6.484;2023-06-22T01:06:18;14.50;;;9.90;;
3843;SDS011;1937;51.444;6.484;2023-06-22T01:08:57;13.70;;;9.57;;
3843;SDS011;1937;51.444;6.484;2023-06-22T01:11:31;14.33;;;11.60;;
3843;SDS011;1937;51.444;6.484;2023-06-22T01:14:04;13.10;;;9.47;;
3843;SDS011;1937;51.444;6.484;2023-06-22T01:16:39;19.70;;;10.47;;
3843;SDS011;1937;51.444;6.484;2023-06-22T01:19:09;19.43;;;10.87;;
3843;SDS011;1937;51.444;6.484;2023-06-22T01:21:52;19.57;;;12.77;;
3843;SDS011;1937;51.444;6.484;2023-06-22T01:24:24;14.83;;;10.77;;
3843;SDS011;1937;51.444;6.484;2023-06-22T01:26:59;16.33;;;10.97;;
3843;SDS011;1937;51.444;6.484;2023-06-22T01:29:37;20.97;;;12.80;;
3843;SDS011;1937;51.444;6.484;2023-06-22T01:32:05;19.97;;;12.47;;
3843;SDS011;1937;51.444;6.484;2023-06-22T01:34:33;15.60;;;11.13;;
3843;SDS011;1937;51.444;6.484;2023-06-22T01:37:01;18.20;;;11.80;;
3843;SDS011;1937;51.444;6.484;2023-06-22T01:39:29;20.67;;;12.03;;
3843;SDS011;1937;51.444;6.484;2023-06-22T01:41:56;17.53;;;11.43;;
3843;SDS011;1937;51.444;6.484;2023-06-22T01:44:24;17.63;;;12.30;;
3843;SDS011;1937;51.444;6.484;2023-06-22T01:46:53;19.27;;;12.07;;
3843;SDS011;1937;51.444;6.484;2023-06-22T01:49:20;20.70;;;11.53;;
3843;SDS011;1937;51.444;6.484;2023-06-22T01:51:47;15.20;;;12.00;;
3843;SDS011;1937;51.444;6.484;2023-06-22T01:54:14;15.47;;;11.00;;
3843;SDS011;1937;51.444;6.484;2023-06-22T01:56:41;19.97;;;11.77;;
3843;SDS011;1937;51.444;6.484;2023-06-22T01:59:09;14.23;;;11.40;;
3843;SDS011;1937;51.444;6.484;2023-06-22T02:01:42;18.77;;;11.93;;
3843;SDS011;1937;51.444;6.484;2023-06-22T02:04:17;14.50;;;11.90;;
3843;SDS011;1937;51.444;6.484;2023-06-22T02:06:47;15.13;;;10.90;;
3843;SDS011;1937;51.444;6.484;2023-06-22T02:09:18;16.50;;;10.93;;
3843;SDS011;1937;51.444;6.484;2023-06-22T02:11:48;18.90;;;11.70;;
3843;SDS011;1937;51.444;6.484;2023-06-22T02:14:20;15.27;;;10.87;;
3843;SDS011;1937;51.444;6.484;2023-06-22T02:16:48;20.47;;;11.70;;
3843;SDS011;1937;51.444;6.484;2023-06-22T02:19:17;20.97;;;12.27;;
3843;SDS011;1937;51.444;6.484;2023-06-22T02:21:48;20.47;;;13.17;;
3843;SDS011;1937;51.444;6.484;2023-06-22T02:24:15;18.93;;;13.80;;
3843;SDS011;1937;51.444;6.484;2023-06-22T02:26:42;22.83;;;13.77;;
3843;SDS011;1937;51.444;6.484;2023-06-22T02:29:10;21.13;;;15.17;;
3843;SDS011;1937;51.444;6.484;2023-06-22T02:31:37;20.40;;;14.00;;
3843;SDS011;1937;51.444;6.484;2023-06-22T02:34:04;21.87;;;14.80;;
3843;SDS011;1937;51.444;6.484;2023-06-22T02:36:32;22.57;;;14.33;;
3843;SDS011;1937;51.444;6.484;2023-06-22T02:38:58;21.60;;;13.83;;
3843;SDS011;1937;51.444;6.484;2023-06-22T02:41:26;25.13;;;15.23;;
3843;SDS011;1937;51.444;6.484;2023-06-22T02:43:53;20.03;;;16.63;;
3843;SDS011;1937;51.444;6.484;2023-06-22T02:46:19;21.27;;;15.57;;
3843;SDS011;1937;51.444;6.484;2023-06-22T02:48:46;26.60;;;14.40;;
3843;SDS011;1937;51.444;6.484;2023-06-22T02:51:13;38.67;;;16.23;;
3843;SDS011;1937;51.444;6.484;2023-06-22T02:53:41;25.57;;;15.77;;
3843;SDS011;1937;51.444;6.484;2023-06-22T02:56:09;23.07;;;15.00;;
3843;SDS011;1937;51.444;6.484;2023-06-22T02:58:37;22.67;;;16.60;;
3843;SDS011;1937;51.444;6.484;2023-06-22T03:01:04;21.73;;;14.37;;
3843;SDS011;1937;51.444;6.484;2023-06-22T03:03:31;23.00;;;15.37;;
3843;SDS011;1937;51.444;6.484;2023-06-22T03:05:58;25.57;;;15.00;;
3843;SDS011;1937;51.444;6.484;2023-06-22T03:08:26;22.77;;;14.70;;
3843;SDS011;1937;51.444;6.484;2023-06-22T03:10:54;17.97;;;13.57;;
3843;SDS011;1937;51.444;6.484;2023-06-22T03:13:21;21.70;;;14.27;;
3843;SDS011;1937;51.444;6.484;2023-06-22T03:15:48;19.83;;;14.33;;
3843;SDS011;1937;51.444;6.484;2023-06-22T03:18:14;20.47;;;14.50;;
3843;SDS011;1937;51.444;6.484;2023-06-22T03:20:41;24.17;;;13.80;;
3843;SDS011;1937;51.444;6.484;2023-06-22T03:23:08;25.40;;;14.80;;
3843;SDS011;1937;51.444;6.484;2023-06-22T03:25:35;22.30;;;14.63;;
3843;SDS011;1937;51.444;6.484;2023-06-22T03:28:03;22.73;;;13.37;;
3843;SDS011;1937;51.444;6.484;2023-06-22T03:30:30;20.63;;;14.30;;
3843;SDS011;1937;51.444;6.484;2023-06-22T03:32:56;22.83;;;15.60;;
3843;SDS011;1937;51.444;6.484;2023-06-22T03:35:23;27.13;;;14.50;;
3843;SDS011;1937;51.444;6.484;2023-06-22T03:37:50;19.57;;;14.53;;
3843;SDS011;1937;51.444;6.484;2023-06-22T03:40:16;21.93;;;15.50;;
3843;SDS011;1937;51.444;6.484;2023-06-22T03:42:43;23.73;;;15.07;;
3843;SDS011;1937;51.444;6.484;2023-06-22T03:45:11;19.60;;;14.23;;
3843;SDS011;1937;51.444;6.484;2023-06-22T03:47:38;19.30;;;13.83;;
3843;SDS011;1937;51.444;6.484;2023-06-22T03:50:05;24.23;;;16.37;;
3843;SDS011;1937;51.444;6.484;2023-06-22T03:52:32;21.63;;;15.10;;
3843;SDS011;1937;51.444;6.484;2023-06-22T03:55:00;26.43;;;16.43;;
3843;SDS011;1937;51.444;6.484;2023-06-22T03:57:26;25.10;;;16.00;;
3843;SDS011;1937;51.444;6.484;2023-06-22T03:59:54;25.70;;;16.10;;
3843;SDS011;1937;51.444;6.484;2023-06-22T04:02:24;28.67;;;19.33;;
3843;SDS011;1937;51.444;6.484;2023-06-22T04:04:51;30.97;;;16.83;;
3843;SDS011;1937;51.444;6.484;2023-06-22T04:07:18;22.90;;;16.90;;
3843;SDS011;1937;51.444;6.484;2023-06-22T04:09:45;31.90;;;17.30;;
3843;SDS011;1937;51.444;6.484;2023-06-22T04:12:11;23.67;;;17.40;;
3843;SDS011;1937;51.444;6.484;2023-06-22T04:14:38;24.37;;;18.03;;
3843;SDS011;1937;51.444;6.484;2023-06-22T04:17:04;27.83;;;17.40;;
3843;SDS011;1937;51.444;6.484;2023-06-22T04:19:34;27.03;;;17.53;;
3843;SDS011;1937;51.444;6.484;2023-06-22T04:22:01;29.63;;;17.77;;
3843;SDS011;1937;51.444;6.484;2023-06-22T04:24:27;28.47;;;19.17;;
3843;SDS011;1937;51.444;6.484;2023-06-22T04:26:54;29.00;;;18.93;;
3843;SDS011;1937;51.444;6.484;2023-06-22T04:29:21;28.90;;;17.40;;
3843;SDS011;1937;51.444;6.484;2023-06-22T04:31:53;26.47;;;17.60;;
3843;SDS011;1937;51.444;6.484;2023-06-22T04:34:22;25.17;;;18.10;;
3843;SDS011;1937;51.444;6.484;2023-06-22T04:37:01;33.20;;;19.37;;
3843;SDS011;1937;51.444;6.484;2023-06-22T04:40:15;27.30;;;17.57;;
3843;SDS011;1937;51.444;6.484;2023-06-22T04:42:59;31.10;;;19.00;;
3843;SDS011;1937;51.444;6.484;2023-06-22T04:45:38;23.50;;;16.37;;
3843;SDS011;1937;51.444;6.484;2023-06-22T04:48:09;23.87;;;16.77;;
3843;SDS011;1937;51.444;6.484;2023-06-22T04:50:57;25.77;;;18.17;;
3843;SDS011;1937;51.444;6.484;2023-06-22T04:53:43;28.67;;;18.20;;
3843;SDS011;1937;51.444;6.484;2023-06-22T04:56:10;25.97;;;15.90;;
3843;SDS011;1937;51.444;6.484;2023-06-22T05:02:05;28.00;;;19.00;;
3843;SDS011;1937;51.444;6.484;2023-06-22T05:04:34;29.03;;;18.50;;
3843;SDS011;1937;51.444;6.484;2023-06-22T05:07:14;27.50;;;17.23;;
3843;SDS011;1937;51.444;6.484;2023-06-22T05:12:55;23.90;;;16.13;;
3843;SDS011;1937;51.444;6.484;2023-06-22T05:18:45;26.50;;;17.47;;
3843;SDS011;1937;51.444;6.484;2023-06-22T05:21:23;25.73;;;16.70;;
3843;SDS011;1937;51.444;6.484;2023-06-22T05:27:45;29.70;;;16.87;;
3843;SDS011;1937;51.444;6.484;2023-06-22T05:30:18;22.57;;;15.57;;
3843;SDS011;1937;51.444;6.484;2023-06-22T05:32:54;24.60;;;17.53;;
3843;SDS011;1937;51.444;6.484;2023-06-22T05:35:28;26.40;;;17.10;;
3843;SDS011;1937;51.444;6.484;2023-06-22T05:38:09;24.10;;;17.10;;
3843;SDS011;1937;51.444;6.484;2023-06-22T05:40:39;23.17;;;16.23;;
3843;SDS011;1937;51.444;6.484;2023-06-22T05:43:06;31.03;;;16.30;;
3843;SDS011;1937;51.444;6.484;2023-06-22T05:45:34;25.73;;;16.80;;
3843;SDS011;1937;51.444;6.484;2023-06-22T05:48:01;25.93;;;17.40;;
3843;SDS011;1937;51.444;6.484;2023-06-22T05:50:28;26.80;;;17.20;;
3843;SDS011;1937;51.444;6.484;2023-06-22T05:52:55;28.80;;;16.47;;
3843;SDS011;1937;51.444;6.484;2023-06-22T05:55:22;24.80;;;16.33;;
3843;SDS011;1937;51.444;6.484;2023-06-22T05:57:49;20.20;;;14.40;;
3843;SDS011;1937;51.444;6.484;2023-06-22T06:00:18;21.40;;;15.17;;
3843;SDS011;1937;51.444;6.484;2023-06-22T06:02:48;27.80;;;19.23;;
3843;SDS011;1937;51.444;6.484;2023-06-22T06:05:15;29.30;;;17.30;;
3843;SDS011;1937;51.444;6.484;2023-06-22T06:07:44;26.50;;;17.40;;
3843;SDS011;1937;51.444;6.484;2023-06-22T06:10:23;29.43;;;18.57;;
3843;SDS011;1937;51.444;6.484;2023-06-22T06:12:50;25.97;;;16.40;;
3843;SDS011;1937;51.444;6.484;2023-06-22T06:15:17;25.37;;;18.37;;
3843;SDS011;1937;51.444;6.484;2023-06-22T06:17:52;23.70;;;16.30;;
3843;SDS011;1937;51.444;6.484;2023-06-22T06:20:20;21.53;;;17.53;;
3843;SDS011;1937;51.444;6.484;2023-06-22T06:22:49;21.07;;;15.97;;
3843;SDS011;1937;51.444;6.484;2023-06-22T06:25:17;24.23;;;17.10;;
3843;SDS011;1937;51.444;6.484;2023-06-22T06:27:45;26.67;;;17.67;;
3843;SDS011;1937;51.444;6.484;2023-06-22T06:30:13;23.47;;;17.60;;
3843;SDS011;1937;51.444;6.484;2023-06-22T06:32:41;28.43;;;19.63;;
3843;SDS011;1937;51.444;6.484;2023-06-22T06:35:12;25.77;;;18.83;;
3843;SDS011;1937;51.444;6.484;2023-06-22T06:37:41;25.40;;;18.10;;
3843;SDS011;1937;51.444;6.484;2023-06-22T06:40:10;29.33;;;19.83;;
3843;SDS011;1937;51.444;6.484;2023-06-22T06:42:38;36.40;;;19.17;;
3843;SDS011;1937;51.444;6.484;2023-06-22T06:45:07;29.30;;;19.50;;
3843;SDS011;1937;51.444;6.484;2023-06-22T06:47:34;31.67;;;20.07;;
3843;SDS011;1937;51.444;6.484;2023-06-22T06:50:01;30.70;;;19.37;;
3843;SDS011;1937;51.444;6.484;2023-06-22T06:52:30;23.30;;;17.23;;
3843;SDS011;1937;51.444;6.484;2023-06-22T06:54:57;27.60;;;18.43;;
3843;SDS011;1937;51.444;6.484;2023-06-22T06:57:24;29.90;;;19.07;;
3843;SDS011;1937;51.444;6.484;2023-06-22T06:59:54;27.10;;;19.23;;
3843;SDS011;1937;51.444;6.484;2023-06-22T07:02:20;29.17;;;19.10;;
3843;SDS011;1937;51.444;6.484;2023-06-22T07:04:47;25.60;;;18.07;;
3843;SDS011;1937;51.444;6.484;2023-06-22T07:07:14;23.47;;;18.40;;
3843;SDS011;1937;51.444;6.484;2023-06-22T07:09:42;26.87;;;18.50;;
3843;SDS011;1937;51.444;6.484;2023-06-22T07:12:09;28.00;;;18.53;;
3843;SDS011;1937;51.444;6.484;2023-06-22T07:14:36;31.10;;;17.90;;
3843;SDS011;1937;51.444;6.484;2023-06-22T07:17:03;27.67;;;17.90;;
3843;SDS011;1937;51.444;6.484;2023-06-22T07:19:30;24.97;;;17.60;;
3843;SDS011;1937;51.444;6.484;2023-06-22T07:21:56;23.40;;;16.67;;
3843;SDS011;1937;51.444;6.484;2023-06-22T07:24:23;30.13;;;17.73;;
3843;SDS011;1937;51.444;6.484;2023-06-22T07:26:52;23.30;;;16.33;;
3843;SDS011;1937;51.444;6.484;2023-06-22T07:29:18;26.70;;;17.93;;
3843;SDS011;1937;51.444;6.484;2023-06-22T07:31:46;24.50;;;16.80;;
3843;SDS011;1937;51.444;6.484;2023-06-22T07:34:14;19.73;;;14.33;;
3843;SDS011;1937;51.444;6.484;2023-06-22T07:36:41;23.00;;;15.73;;
3843;SDS011;1937;51.444;6.484;2023-06-22T07:39:08;25.50;;;15.90;;
3843;SDS011;1937;51.444;6.484;2023-06-22T07:41:36;22.47;;;15.43;;
3843;SDS011;1937;51.444;6.484;2023-06-22T07:44:07;23.83;;;17.03;;
3843;SDS011;1937;51.444;6.484;2023-06-22T07:46:34;23.87;;;16.13;;
3843;SDS011;1937;51.444;6.484;2023-06-22T07:49:01;26.50;;;17.10;;
3843;SDS011;1937;51.444;6.484;2023-06-22T07:51:28;22.37;;;15.93;;
3843;SDS011;1937;51.444;6.484;2023-06-22T07:53:54;28.97;;;16.70;;
3843;SDS011;1937;51.444;6.484;2023-06-22T07:56:21;25.30;;;16.10;;
3843;SDS011;1937;51.444;6.484;2023-06-22T07:58:48;22.23;;;15.17;;
3843;SDS011;1937;51.444;6.484;2023-06-22T08:01:16;23.20;;;15.73;;
3843;SDS011;1937;51.444;6.484;2023-06-22T08:03:46;25.67;;;17.30;;
3843;SDS011;1937;51.444;6.484;2023-06-22T08:06:13;23.67;;;16.47;;
3843;SDS011;1937;51.444;6.484;2023-06-22T08:08:39;26.53;;;18.23;;
3843;SDS011;1937;51.444;6.484;2023-06-22T08:11:07;21.03;;;15.23;;
3843;SDS011;1937;51.444;6.484;2023-06-22T08:13:34;25.83;;;16.37;;
3843;SDS011;1937;51.444;6.484;2023-06-22T08:16:01;27.20;;;16.73;;
3843;SDS011;1937;51.444;6.484;2023-06-22T08:18:29;26.07;;;17.17;;
3843;SDS011;1937;51.444;6.484;2023-06-22T08:20:55;31.40;;;18.03;;
3843;SDS011;1937;51.444;6.484;2023-06-22T08:23:22;23.63;;;16.47;;
3843;SDS011;1937;51.444;6.484;2023-06-22T08:25:49;28.67;;;18.40;;
3843;SDS011;1937;51.444;6.484;2023-06-22T08:28:16;30.20;;;17.57;;
3843;SDS011;1937;51.444;6.484;2023-06-22T08:30:43;30.07;;;19.77;;
3843;SDS011;1937;51.444;6.484;2023-06-22T08:33:09;30.17;;;17.87;;
3843;SDS011;1937;51.444;6.484;2023-06-22T08:35:37;29.50;;;18.50;;
3843;SDS011;1937;51.444;6.484;2023-06-22T08:38:04;27.20;;;18.47;;
3843;SDS011;1937;51.444;6.484;2023-06-22T08:40:31;25.10;;;19.47;;
3843;SDS011;1937;51.444;6.484;2023-06-22T08:42:58;26.00;;;18.57;;
3843;SDS011;1937;51.444;6.484;2023-06-22T08:45:24;29.93;;;18.23;;
3843;SDS011;1937;51.444;6.484;2023-06-22T08:47:51;30.30;;;19.70;;
3843;SDS011;1937;51.444;6.484;2023-06-22T08:50:18;28.20;;;18.37;;
3843;SDS011;1937;51.444;6.484;2023-06-22T08:52:46;24.93;;;17.63;;
3843;SDS011;1937;51.444;6.484;2023-06-22T08:55:13;28.70;;;18.67;;
3843;SDS011;1937;51.444;6.484;2023-06-22T08:57:39;27.37;;;18.07;;
3843;SDS011;1937;51.444;6.484;2023-06-22T09:00:08;27.93;;;19.53;;
3843;SDS011;1937;51.444;6.484;2023-06-22T09:02:41;24.50;;;18.87;;
3843;SDS011;1937;51.444;6.484;2023-06-22T09:05:08;25.73;;;18.40;;
3843;SDS011;1937;51.444;6.484;2023-06-22T09:07:35;28.47;;;17.20;;
3843;SDS011;1937;51.444;6.484;2023-06-22T09:10:04;23.03;;;18.40;;
3843;SDS011;1937;51.444;6.484;2023-06-22T09:12:32;26.20;;;17.83;;
3843;SDS011;1937;51.444;6.484;2023-06-22T09:14:59;26.10;;;16.83;;
3843;SDS011;1937;51.444;6.484;2023-06-22T09:17:27;29.87;;;18.90;;
3843;SDS011;1937;51.444;6.484;2023-06-22T09:19:54;25.77;;;18.63;;
3843;SDS011;1937;51.444;6.484;2023-06-22T09:22:21;29.57;;;18.07;;
3843;SDS011;1937;51.444;6.484;2023-06-22T09:24:48;27.63;;;18.50;;
3843;SDS011;1937;51.444;6.484;2023-06-22T09:27:16;23.53;;;16.00;;
3843;SDS011;1937;51.444;6.484;2023-06-22T09:29:43;30.33;;;19.20;;
3843;SDS011;1937;51.444;6.484;2023-06-22T09:32:10;27.23;;;19.07;;
3843;SDS011;1937;51.444;6.484;2023-06-22T09:34:36;29.03;;;17.87;;
3843;SDS011;1937;51.444;6.484;2023-06-22T09:37:03;26.30;;;18.93;;
3843;SDS011;1937;51.444;6.484;2023-06-22T09:39:31;25.97;;;19.13;;
3843;SDS011;1937;51.444;6.484;2023-06-22T09:41:57;25.43;;;18.53;;
3843;SDS011;1937;51.444;6.484;2023-06-22T09:44:26;25.27;;;18.90;;
3843;SDS011;1937;51.444;6.484;2023-06-22T09:46:53;28.03;;;19.13;;
3843;SDS011;1937;51.444;6.484;2023-06-22T09:49:19;24.30;;;18.60;;
3843;SDS011;1937;51.444;6.484;2023-06-22T09:51:46;26.90;;;19.60;;
3843;SDS011;1937;51.444;6.484;2023-06-22T09:54:14;25.67;;;17.10;;
3843;SDS011;1937;51.444;6.484;2023-06-22T09:56:41;29.17;;;18.30;;
3843;SDS011;1937;51.444;6.484;2023-06-22T09:59:08;29.87;;;18.37;;
3843;SDS011;1937;51.444;6.484;2023-06-22T10:01:36;21.27;;;16.77;;
3843;SDS011;1937;51.444;6.484;2023-06-22T10:04:06;26.27;;;18.47;;
3843;SDS011;1937;51.444;6.484;2023-06-22T10:06:32;25.30;;;20.20;;
3843;SDS011;1937;51.444;6.484;2023-06-22T10:08:59;22.53;;;17.47;;
3843;SDS011;1937;51.444;6.484;2023-06-22T10:11:26;24.80;;;16.93;;
3843;SDS011;1937;51.444;6.484;2023-06-22T10:13:55;24.63;;;17.07;;
3843;SDS011;1937;51.444;6.484;2023-06-22T10:16:23;21.47;;;17.00;;
3843;SDS011;1937;51.444;6.484;2023-06-22T10:18:58;23.60;;;16.40;;
3843;SDS011;1937;51.444;6.484;2023-06-22T10:21:24;23.10;;;16.20;;
3843;SDS011;1937;51.444;6.484;2023-06-22T10:23:52;23.07;;;15.80;;
3843;SDS011;1937;51.444;6.484;2023-06-22T10:26:18;21.57;;;15.03;;
3843;SDS011;1937;51.444;6.484;2023-06-22T10:28:45;21.43;;;16.03;;
3843;SDS011;1937;51.444;6.484;2023-06-22T10:31:12;21.87;;;15.60;;
3843;SDS011;1937;51.444;6.484;2023-06-22T10:33:39;20.13;;;14.67;;
3843;SDS011;1937;51.444;6.484;2023-06-22T10:36:08;21.70;;;15.60;;
3843;SDS011;1937;51.444;6.484;2023-06-22T10:38:34;23.67;;;16.20;;
3843;SDS011;1937;51.444;6.484;2023-06-22T10:41:01;22.77;;;15.33;;
3843;SDS011;1937;51.444;6.484;2023-06-22T10:43:28;22.33;;;16.37;;
3843;SDS011;1937;51.444;6.484;2023-06-22T10:45:54;23.50;;;17.50;;
3843;SDS011;1937;51.444;6.484;2023-06-22T10:48:21;27.80;;;17.67;;
3843;SDS011;1937;51.444;6.484;2023-06-22T10:50:47;23.50;;;17.07;;
3843;SDS011;1937;51.444;6.484;2023-06-22T10:53:15;23.87;;;17.50;;
3843;SDS011;1937;51.444;6.484;2023-06-22T10:55:42;27.20;;;18.73;;
3843;SDS011;1937;51.444;6.484;2023-06-22T10:58:09;43.60;;;19.33;;
3843;SDS011;1937;51.444;6.484;2023-06-22T11:00:35;28.20;;;19.87;;
3843;SDS011;1937;51.444;6.484;2023-06-22T11:03:02;23.50;;;17.97;;
3843;SDS011;1937;51.444;6.484;2023-06-22T11:05:29;24.93;;;18.03;;
3843;SDS011;1937;51.444;6.484;2023-06-22T11:07:55;29.90;;;18.63;;
3843;SDS011;1937;51.444;6.484;2023-06-22T11:10:23;26.63;;;20.03;;
3843;SDS011;1937;51.444;6.484;2023-06-22T11:12:51;31.83;;;18.97;;
3843;SDS011;1937;51.444;6.484;2023-06-22T11:15:18;24.63;;;18.37;;
3843;SDS011;1937;51.444;6.484;2023-06-22T11:17:45;23.97;;;17.73;;
3843;SDS011;1937;51.444;6.484;2023-06-22T11:20:11;26.73;;;18.37;;
3843;SDS011;1937;51.444;6.484;2023-06-22T11:22:38;25.77;;;18.70;;
3843;SDS011;1937;51.444;6.484;2023-06-22T11:25:05;25.37;;;18.57;;
3843;SDS011;1937;51.444;6.484;2023-06-22T11:27:35;26.73;;;18.50;;
3843;SDS011;1937;51.444;6.484;2023-06-22T11:30:02;22.80;;;17.30;;
3843;SDS011;1937;51.444;6.484;2023-06-22T11:32:29;26.00;;;18.07;;
3843;SDS011;1937;51.444;6.484;2023-06-22T11:34:56;20.20;;;16.23;;
3843;SDS011;1937;51.444;6.484;2023-06-22T11:37:23;25.83;;;18.80;;
3843;SDS011;1937;51.444;6.484;2023-06-22T11:39:49;26.40;;;19.63;;
3843;SDS011;1937;51.444;6.484;2023-06-22T11:42:16;26.93;;;20.20;;
3843;SDS011;1937;51.444;6.484;2023-06-22T11:44:44;33.20;;;21.37;;
3843;SDS011;1937;51.444;6.484;2023-06-22T11:47:10;34.20;;;22.40;;
3843;SDS011;1937;51.444;6.484;2023-06-22T11:49:37;34.33;;;22.37;;
3843;SDS011;1937;51.444;6.484;2023-06-22T11:52:05;34.73;;;22.80;;
3843;SDS011;1937;51.444;6.484;2023-06-22T11:54:32;36.00;;;25.13;;
3843;SDS011;1937;51.444;6.484;2023-06-22T11:56:58;32.77;;;23.37;;
3843;SDS011;1937;51.444;6.484;2023-06-22T11:59:25;33.47;;;24.53;;
3843;SDS011;1937;51.444;6.484;2023-06-22T12:01:53;35.67;;;23.80;;
3843;SDS011;1937;51.444;6.484;2023-06-22T12:04:20;37.20;;;24.90;;
3843;SDS011;1937;51.444;6.484;2023-06-22T12:06:47;37.00;;;24.63;;
3843;SDS011;1937;51.444;6.484;2023-06-22T12:09:13;40.80;;;27.10;;
3843;SDS011;1937;51.444;6.484;2023-06-22T12:11:40;40.30;;;24.90;;
3843;SDS011;1937;51.444;6.484;2023-06-22T12:14:07;41.30;;;27.17;;
3843;SDS011;1937;51.444;6.484;2023-06-22T12:16:33;41.27;;;27.47;;
3843;SDS011;1937;51.444;6.484;2023-06-22T12:19:01;45.67;;;28.80;;
3843;SDS011;1937;51.444;6.484;2023-06-22T12:21:28;48.23;;;27.10;;
3843;SDS011;1937;51.444;6.484;2023-06-22T12:23:55;37.17;;;26.30;;
3843;SDS011;1937;51.444;6.484;2023-06-22T12:26:22;53.33;;;31.40;;
3843;SDS011;1937;51.444;6.484;2023-06-22T12:28:48;36.27;;;26.80;;
3843;SDS011;1937;51.444;6.484;2023-06-22T12:31:15;38.80;;;26.73;;
3843;SDS011;1937;51.444;6.484;2023-06-22T12:33:41;42.77;;;28.03;;
3843;SDS011;1937;51.444;6.484;2023-06-22T12:36:09;46.83;;;28.20;;
3843;SDS011;1937;51.444;6.484;2023-06-22T12:38:36;42.47;;;27.83;;
3843;SDS011;1937;51.444;6.484;2023-06-22T12:41:03;43.80;;;28.10;;
3843;SDS011;1937;51.444;6.484;2023-06-22T12:43:29;40.97;;;28.70;;
3843;SDS011;1937;51.444;6.484;2023-06-22T12:45:56;47.13;;;29.30;;
3843;SDS011;1937;51.444;6.484;2023-06-22T12:48:24;39.93;;;27.27;;
3843;SDS011;1937;51.444;6.484;2023-06-22T12:50:53;46.77;;;27.23;;
3843;SDS011;1937;51.444;6.484;2023-06-22T12:53:21;36.17;;;26.90;;
3843;SDS011;1937;51.444;6.484;2023-06-22T12:55:48;39.43;;;27.60;;
3843;SDS011;1937;51.444;6.484;2023-06-22T12:58:15;41.90;;;27.40;;
3843;SDS011;1937;51.444;6.484;2023-06-22T13:00:42;37.70;;;27.67;;
3843;SDS011;1937;51.444;6.484;2023-06-22T13:03:08;39.50;;;27.60;;
3843;SDS011;1937;51.444;6.484;2023-06-22T13:05:35;41.97;;;28.60;;
3843;SDS011;1937;51.444;6.484;2023-06-22T13:08:03;32.63;;;24.27;;
3843;SDS011;1937;51.444;6.484;2023-06-22T13:10:31;38.17;;;25.10;;
3843;SDS011;1937;51.444;6.484;2023-06-22T13:12:58;38.00;;;24.43;;
3843;SDS011;1937;51.444;6.484;2023-06-22T13:15:25;36.77;;;25.80;;
3843;SDS011;1937;51.444;6.484;2023-06-22T13:17:52;36.10;;;24.10;;
3843;SDS011;1937;51.444;6.484;2023-06-22T13:20:19;39.30;;;25.77;;
3843;SDS011;1937;51.444;6.484;2023-06-22T13:22:46;32.83;;;24.20;;
3843;SDS011;1937;51.444;6.484;2023-06-22T13:25:13;34.60;;;24.57;;
3843;SDS011;1937;51.444;6.484;2023-06-22T13:27:45;36.37;;;26.47;;
3843;SDS011;1937;51.444;6.484;2023-06-22T13:30:12;39.37;;;26.63;;
3843;SDS011;1937;51.444;6.484;2023-06-22T13:32:39;42.47;;;27.40;;
3843;SDS011;1937;51.444;6.484;2023-06-22T13:35:07;37.10;;;25.33;;
3843;SDS011;1937;51.444;6.484;2023-06-22T13:37:34;37.07;;;25.83;;
3843;SDS011;1937;51.444;6.484;2023-06-22T13:40:01;38.50;;;26.47;;
3843;SDS011;1937;51.444;6.484;2023-06-22T13:42:30;42.03;;;29.30;;
3843;SDS011;1937;51.444;6.484;2023-06-22T13:44:58;41.50;;;27.63;;
3843;SDS011;1937;51.444;6.484;2023-06-22T13:47:25;42.77;;;29.60;;
3843;SDS011;1937;51.444;6.484;2023-06-22T13:49:52;40.57;;;26.57;;
3843;SDS011;1937;51.444;6.484;2023-06-22T13:52:18;38.30;;;27.13;;
3843;SDS011;1937;51.444;6.484;2023-06-22T13:54:45;37.37;;;27.77;;
3843;SDS011;1937;51.444;6.484;2023-06-22T13:57:12;40.90;;;28.37;;
3843;SDS011;1937;51.444;6.484;2023-06-22T13:59:39;49.20;;;29.13;;
3843;SDS011;1937;51.444;6.484;2023-06-22T14:02:07;37.97;;;25.27;;
3843;SDS011;1937;51.444;6.484;2023-06-22T14:04:34;44.87;;;27.47;;
3843;SDS011;1937;51.444;6.484;2023-06-22T14:07:00;35.70;;;24.73;;
3843;SDS011;1937;51.444;6.484;2023-06-22T14:09:33;37.10;;;25.83;;
3843;SDS011;1937;51.444;6.484;2023-06-22T14:12:09;41.13;;;26.17;;
3843;SDS011;1937;51.444;6.484;2023-06-22T14:14:36;40.97;;;26.30;;
3843;SDS011;1937;51.444;6.484;2023-06-22T14:17:03;40.00;;;26.07;;
3843;SDS011;1937;51.444;6.484;2023-06-22T14:19:32;39.17;;;26.57;;
3843;SDS011;1937;51.444;6.484;2023-06-22T14:21:59;37.40;;;27.87;;
3843;SDS011;1937;51.444;6.484;2023-06-22T14:24:25;41.30;;;26.17;;
3843;SDS011;1937;51.444;6.484;2023-06-22T14:26:52;43.60;;;26.93;;
3843;SDS011;1937;51.444;6.484;2023-06-22T14:29:20;44.17;;;28.30;;
3843;SDS011;1937;51.444;6.484;2023-06-22T14:31:47;40.00;;;25.83;;
3843;SDS011;1937;51.444;6.484;2023-06-22T14:34:14;41.07;;;26.80;;
3843;SDS011;1937;51.444;6.484;2023-06-22T14:36:43;41.90;;;28.37;;
3843;SDS011;1937;51.444;6.484;2023-06-22T14:39:09;45.63;;;28.00;;
3843;SDS011;1937;51.444;6.484;2023-06-22T14:41:36;38.70;;;26.83;;
3843;SDS011;1937;51.444;6.484;2023-06-22T14:44:03;37.83;;;26.43;;
3843;SDS011;1937;51.444;6.484;2023-06-22T14:46:30;39.40;;;27.30;;
3843;SDS011;1937;51.444;6.484;2023-06-22T14:48:56;41.63;;;26.03;;
3843;SDS011;1937;51.444;6.484;2023-06-22T14:51:23;41.00;;;25.80;;
3843;SDS011;1937;51.444;6.484;2023-06-22T14:53:51;41.13;;;26.33;;
3843;SDS011;1937;51.444;6.484;2023-06-22T14:56:17;38.83;;;26.20;;
3843;SDS011;1937;51.444;6.484;2023-06-22T14:58:44;40.20;;;27.13;;
3843;SDS011;1937;51.444;6.484;2023-06-22T15:01:11;44.50;;;28.27;;
3843;SDS011;1937;51.444;6.484;2023-06-22T15:03:38;41.60;;;27.87;;
3843;SDS011;1937;51.444;6.484;2023-06-22T15:06:05;38.43;;;26.10;;
3843;SDS011;1937;51.444;6.484;2023-06-22T15:08:32;37.43;;;24.60;;